sensor_id;sensor_type;location;lat;lon;timestamp;temperature;humidity
22923;DHT22;11627;51.322;22.816;2023-04-29T00:00:36;4.10;13.40
22923;DHT22;11627;51.322;22.816;2023-04-29T00:03:02;4.10;13.50
22923;DHT22;11627;51.322;22.816;2023-04-29T00:05:28;4.10;13.20
22923;DHT22;11627;51.322;22.816;2023-04-29T00:07:53;4.00;18.20
22923;DHT22;11627;51.322;22.816;2023-04-29T00:10:19;4.00;20.60
22923;DHT22;11627;51.322;22.816;2023-04-29T00:12:45;4.00;20.50
22923;DHT22;11627;51.322;22.816;2023-04-29T00:15:10;4.00;17.90
22923;DHT22;11627;51.322;22.816;2023-04-29T00:17:36;4.00;18.70
22923;DHT22;11627;51.322;22.816;2023-04-29T00:20:02;3.90;17.20
22923;DHT22;11627;51.322;22.816;2023-04-29T00:22:28;3.80;19.80
22923;DHT22;11627;51.322;22.816;2023-04-29T00:24:54;3.80;23.10
22923;DHT22;11627;51.322;22.816;2023-04-29T00:27:20;3.80;25.80
22923;DHT22;11627;51.322;22.816;2023-04-29T00:29:45;3.70;27.70
22923;DHT22;11627;51.322;22.816;2023-04-29T00:32:11;3.70;31.50
22923;DHT22;11627;51.322;22.816;2023-04-29T00:34:37;3.70;28.50
22923;DHT22;11627;51.322;22.816;2023-04-29T00:37:02;3.60;29.00
22923;DHT22;11627;51.322;22.816;2023-04-29T00:39:28;3.60;29.90
22923;DHT22;11627;51.322;22.816;2023-04-29T00:41:54;3.60;33.10
22923;DHT22;11627;51.322;22.816;2023-04-29T00:44:20;3.60;32.90
22923;DHT22;11627;51.322;22.816;2023-04-29T00:46:46;3.60;32.10
22923;DHT22;11627;51.322;22.816;2023-04-29T00:49:12;3.60;32.20
22923;DHT22;11627;51.322;22.816;2023-04-29T00:51:39;3.50;34.00
22923;DHT22;11627;51.322;22.816;2023-04-29T00:54:06;3.50;34.00
22923;DHT22;11627;51.322;22.816;2023-04-29T00:56:34;3.50;33.70
22923;DHT22;11627;51.322;22.816;2023-04-29T00:59:01;3.50;32.20
22923;DHT22;11627;51.322;22.816;2023-04-29T01:01:28;3.50;30.40
22923;DHT22;11627;51.322;22.816;2023-04-29T01:03:56;3.50;34.30
22923;DHT22;11627;51.322;22.816;2023-04-29T01:06:45;3.40;35.00
22923;DHT22;11627;51.322;22.816;2023-04-29T01:09:37;3.40;36.60
22923;DHT22;11627;51.322;22.816;2023-04-29T01:17:41;3.50;28.80
22923;DHT22;11627;51.322;22.816;2023-04-29T01:20:09;3.50;27.70
22923;DHT22;11627;51.322;22.816;2023-04-29T01:22:35;3.50;26.70
22923;DHT22;11627;51.322;22.816;2023-04-29T01:25:02;3.50;25.70
22923;DHT22;11627;51.322;22.816;2023-04-29T01:33:05;3.40;25.50
22923;DHT22;11627;51.322;22.816;2023-04-29T01:41:26;3.50;26.40
22923;DHT22;11627;51.322;22.816;2023-04-29T01:43:56;3.50;23.20
22923;DHT22;11627;51.322;22.816;2023-04-29T01:46:22;3.40;25.30
22923;DHT22;11627;51.322;22.816;2023-04-29T01:48:51;3.40;26.90
22923;DHT22;11627;51.322;22.816;2023-04-29T01:51:16;3.40;29.90
22923;DHT22;11627;51.322;22.816;2023-04-29T01:53:42;3.40;28.60
22923;DHT22;11627;51.322;22.816;2023-04-29T01:56:08;3.30;27.10
22923;DHT22;11627;51.322;22.816;2023-04-29T01:58:34;3.30;29.80
22923;DHT22;11627;51.322;22.816;2023-04-29T02:01:00;3.20;33.60
22923;DHT22;11627;51.322;22.816;2023-04-29T02:03:25;3.20;35.80
22923;DHT22;11627;51.322;22.816;2023-04-29T02:05:51;3.30;36.80
22923;DHT22;11627;51.322;22.816;2023-04-29T02:08:17;3.30;35.90
22923;DHT22;11627;51.322;22.816;2023-04-29T02:10:56;3.30;36.30
22923;DHT22;11627;51.322;22.816;2023-04-29T02:13:22;3.30;34.10
22923;DHT22;11627;51.322;22.816;2023-04-29T02:15:48;3.30;31.90
22923;DHT22;11627;51.322;22.816;2023-04-29T02:18:14;3.30;31.70
22923;DHT22;11627;51.322;22.816;2023-04-29T02:20:40;3.30;31.50
22923;DHT22;11627;51.322;22.816;2023-04-29T02:23:06;3.30;31.90
22923;DHT22;11627;51.322;22.816;2023-04-29T02:25:32;3.30;30.70
22923;DHT22;11627;51.322;22.816;2023-04-29T02:27:58;3.30;30.20
22923;DHT22;11627;51.322;22.816;2023-04-29T02:30:23;3.30;30.90
22923;DHT22;11627;51.322;22.816;2023-04-29T02:32:49;3.30;32.40
22923;DHT22;11627;51.322;22.816;2023-04-29T02:35:15;3.30;31.40
22923;DHT22;11627;51.322;22.816;2023-04-29T02:37:41;3.30;30.80
22923;DHT22;11627;51.322;22.816;2023-04-29T02:40:07;3.30;30.00
22923;DHT22;11627;51.322;22.816;2023-04-29T02:42:33;3.30;30.00
22923;DHT22;11627;51.322;22.816;2023-04-29T02:44:59;3.20;32.10
22923;DHT22;11627;51.322;22.816;2023-04-29T02:47:25;3.20;31.40
22923;DHT22;11627;51.322;22.816;2023-04-29T02:49:51;3.20;31.90
22923;DHT22;11627;51.322;22.816;2023-04-29T02:52:16;3.20;33.20
22923;DHT22;11627;51.322;22.816;2023-04-29T02:54:43;3.20;30.00
22923;DHT22;11627;51.322;22.816;2023-04-29T02:57:09;3.20;28.90
22923;DHT22;11627;51.322;22.816;2023-04-29T02:59:35;3.20;29.70
22923;DHT22;11627;51.322;22.816;2023-04-29T03:02:01;3.20;30.40
22923;DHT22;11627;51.322;22.816;2023-04-29T03:04:27;3.20;30.40
22923;DHT22;11627;51.322;22.816;2023-04-29T03:06:57;3.20;30.00
22923;DHT22;11627;51.322;22.816;2023-04-29T03:09:23;3.20;29.80
22923;DHT22;11627;51.322;22.816;2023-04-29T03:11:49;3.10;30.70
22923;DHT22;11627;51.322;22.816;2023-04-29T03:14:14;3.20;32.00
22923;DHT22;11627;51.322;22.816;2023-04-29T03:16:40;3.10;32.80
22923;DHT22;11627;51.322;22.816;2023-04-29T03:19:07;3.10;33.50
22923;DHT22;11627;51.322;22.816;2023-04-29T03:21:33;3.10;34.30
22923;DHT22;11627;51.322;22.816;2023-04-29T03:23:58;3.10;35.00
22923;DHT22;11627;51.322;22.816;2023-04-29T03:26:24;3.20;35.50
22923;DHT22;11627;51.322;22.816;2023-04-29T03:28:50;3.20;34.30
22923;DHT22;11627;51.322;22.816;2023-04-29T03:31:16;3.20;36.20
22923;DHT22;11627;51.322;22.816;2023-04-29T03:33:42;3.20;36.50
22923;DHT22;11627;51.322;22.816;2023-04-29T03:36:08;3.20;34.00
22923;DHT22;11627;51.322;22.816;2023-04-29T03:38:35;3.20;34.10
22923;DHT22;11627;51.322;22.816;2023-04-29T03:41:01;3.30;35.50
22923;DHT22;11627;51.322;22.816;2023-04-29T03:43:27;3.30;35.40
22923;DHT22;11627;51.322;22.816;2023-04-29T03:45:53;3.30;37.90
22923;DHT22;11627;51.322;22.816;2023-04-29T03:48:18;3.30;39.30
22923;DHT22;11627;51.322;22.816;2023-04-29T03:50:46;3.40;38.30
22923;DHT22;11627;51.322;22.816;2023-04-29T03:53:13;3.40;35.50
22923;DHT22;11627;51.322;22.816;2023-04-29T03:55:39;3.50;32.80
22923;DHT22;11627;51.322;22.816;2023-04-29T03:58:05;3.50;31.30
22923;DHT22;11627;51.322;22.816;2023-04-29T04:00:31;3.60;29.40
22923;DHT22;11627;51.322;22.816;2023-04-29T04:02:57;3.60;29.20
22923;DHT22;11627;51.322;22.816;2023-04-29T04:05:23;3.80;28.10
22923;DHT22;11627;51.322;22.816;2023-04-29T04:07:53;3.80;29.40
22923;DHT22;11627;51.322;22.816;2023-04-29T04:10:19;3.90;29.00
22923;DHT22;11627;51.322;22.816;2023-04-29T04:12:44;4.00;28.90
22923;DHT22;11627;51.322;22.816;2023-04-29T04:15:12;4.00;29.90
22923;DHT22;11627;51.322;22.816;2023-04-29T04:17:38;4.20;30.80
22923;DHT22;11627;51.322;22.816;2023-04-29T04:20:04;4.30;28.30
22923;DHT22;11627;51.322;22.816;2023-04-29T04:22:30;4.50;27.50
22923;DHT22;11627;51.322;22.816;2023-04-29T04:24:56;4.70;26.40
22923;DHT22;11627;51.322;22.816;2023-04-29T04:27:22;4.80;28.10
22923;DHT22;11627;51.322;22.816;2023-04-29T04:29:47;4.90;35.50
22923;DHT22;11627;51.322;22.816;2023-04-29T04:32:13;5.00;37.40
22923;DHT22;11627;51.322;22.816;2023-04-29T04:34:39;5.20;33.30
22923;DHT22;11627;51.322;22.816;2023-04-29T04:37:05;5.40;24.80
22923;DHT22;11627;51.322;22.816;2023-04-29T04:39:31;5.50;16.40
22923;DHT22;11627;51.322;22.816;2023-04-29T04:41:57;5.60;11.00
22923;DHT22;11627;51.322;22.816;2023-04-29T04:44:22;5.80;5.10
22923;DHT22;11627;51.322;22.816;2023-04-29T04:46:50;5.90;1.00
22923;DHT22;11627;51.322;22.816;2023-04-29T04:49:16;6.10;1.00
22923;DHT22;11627;51.322;22.816;2023-04-29T04:51:45;6.20;1.00
22923;DHT22;11627;51.322;22.816;2023-04-29T04:54:11;6.40;1.00
22923;DHT22;11627;51.322;22.816;2023-04-29T04:56:38;6.50;1.00
22923;DHT22;11627;51.322;22.816;2023-04-29T04:59:03;6.60;1.00
22923;DHT22;11627;51.322;22.816;2023-04-29T05:01:29;6.70;1.00
22923;DHT22;11627;51.322;22.816;2023-04-29T05:03:55;6.70;1.00
22923;DHT22;11627;51.322;22.816;2023-04-29T05:06:21;6.80;1.00
22923;DHT22;11627;51.322;22.816;2023-04-29T05:08:47;6.90;1.00
22923;DHT22;11627;51.322;22.816;2023-04-29T05:11:17;7.00;1.00
22923;DHT22;11627;51.322;22.816;2023-04-29T05:13:43;7.00;1.00
22923;DHT22;11627;51.322;22.816;2023-04-29T05:16:09;7.10;1.00
22923;DHT22;11627;51.322;22.816;2023-04-29T05:18:34;7.10;1.00
22923;DHT22;11627;51.322;22.816;2023-04-29T05:21:00;7.10;1.00
22923;DHT22;11627;51.322;22.816;2023-04-29T05:23:26;7.20;1.00
22923;DHT22;11627;51.322;22.816;2023-04-29T05:25:52;7.30;1.00
22923;DHT22;11627;51.322;22.816;2023-04-29T05:28:18;7.40;1.00
22923;DHT22;11627;51.322;22.816;2023-04-29T05:30:44;7.50;1.00
22923;DHT22;11627;51.322;22.816;2023-04-29T05:33:10;7.50;1.00
22923;DHT22;11627;51.322;22.816;2023-04-29T05:35:36;7.60;1.00
22923;DHT22;11627;51.322;22.816;2023-04-29T05:38:02;7.70;1.00
22923;DHT22;11627;51.322;22.816;2023-04-29T05:40:28;7.70;1.00
22923;DHT22;11627;51.322;22.816;2023-04-29T05:42:54;7.80;1.00
22923;DHT22;11627;51.322;22.816;2023-04-29T05:45:19;7.90;1.00
22923;DHT22;11627;51.322;22.816;2023-04-29T05:47:45;8.00;1.00
22923;DHT22;11627;51.322;22.816;2023-04-29T05:50:11;8.10;1.00
22923;DHT22;11627;51.322;22.816;2023-04-29T05:52:37;8.10;1.00
22923;DHT22;11627;51.322;22.816;2023-04-29T05:55:03;8.20;1.00
22923;DHT22;11627;51.322;22.816;2023-04-29T05:57:29;8.20;1.00
22923;DHT22;11627;51.322;22.816;2023-04-29T05:59:55;8.20;1.00
22923;DHT22;11627;51.322;22.816;2023-04-29T06:02:22;8.30;1.00
22923;DHT22;11627;51.322;22.816;2023-04-29T06:04:48;8.50;1.00
22923;DHT22;11627;51.322;22.816;2023-04-29T06:07:13;8.50;1.00
22923;DHT22;11627;51.322;22.816;2023-04-29T06:09:39;8.50;1.00
22923;DHT22;11627;51.322;22.816;2023-04-29T06:12:05;8.60;1.00
22923;DHT22;11627;51.322;22.816;2023-04-29T06:14:31;8.70;1.00
22923;DHT22;11627;51.322;22.816;2023-04-29T06:16:57;8.80;1.00
22923;DHT22;11627;51.322;22.816;2023-04-29T06:19:22;8.90;1.00
22923;DHT22;11627;51.322;22.816;2023-04-29T06:21:49;9.00;1.00
22923;DHT22;11627;51.322;22.816;2023-04-29T06:24:15;9.20;1.00
22923;DHT22;11627;51.322;22.816;2023-04-29T06:26:41;9.30;1.00
22923;DHT22;11627;51.322;22.816;2023-04-29T06:29:07;9.40;1.00
22923;DHT22;11627;51.322;22.816;2023-04-29T06:31:32;9.50;1.00
22923;DHT22;11627;51.322;22.816;2023-04-29T06:33:58;9.60;1.00
22923;DHT22;11627;51.322;22.816;2023-04-29T06:36:24;9.70;1.00
22923;DHT22;11627;51.322;22.816;2023-04-29T06:38:52;9.80;1.00
22923;DHT22;11627;51.322;22.816;2023-04-29T06:41:17;9.80;1.00
22923;DHT22;11627;51.322;22.816;2023-04-29T06:43:43;9.80;1.00
22923;DHT22;11627;51.322;22.816;2023-04-29T06:46:09;9.90;1.00
22923;DHT22;11627;51.322;22.816;2023-04-29T06:48:35;9.90;1.00
22923;DHT22;11627;51.322;22.816;2023-04-29T06:51:01;9.90;1.00
22923;DHT22;11627;51.322;22.816;2023-04-29T06:53:27;10.00;1.00
22923;DHT22;11627;51.322;22.816;2023-04-29T06:55:52;10.10;1.00
22923;DHT22;11627;51.322;22.816;2023-04-29T06:58:18;10.20;1.00
22923;DHT22;11627;51.322;22.816;2023-04-29T07:00:46;10.30;1.00
22923;DHT22;11627;51.322;22.816;2023-04-29T07:03:12;10.50;1.00
22923;DHT22;11627;51.322;22.816;2023-04-29T07:05:39;10.50;1.00
22923;DHT22;11627;51.322;22.816;2023-04-29T07:08:07;10.50;1.00
22923;DHT22;11627;51.322;22.816;2023-04-29T07:10:34;10.60;1.00
22923;DHT22;11627;51.322;22.816;2023-04-29T07:13:00;10.80;1.00
22923;DHT22;11627;51.322;22.816;2023-04-29T07:15:26;10.80;1.00
22923;DHT22;11627;51.322;22.816;2023-04-29T07:17:52;11.00;1.00
22923;DHT22;11627;51.322;22.816;2023-04-29T07:20:18;11.20;1.00
22923;DHT22;11627;51.322;22.816;2023-04-29T07:22:44;11.30;1.00
22923;DHT22;11627;51.322;22.816;2023-04-29T07:25:10;11.40;1.00
22923;DHT22;11627;51.322;22.816;2023-04-29T07:27:36;11.60;1.00
22923;DHT22;11627;51.322;22.816;2023-04-29T07:30:03;11.60;1.00
22923;DHT22;11627;51.322;22.816;2023-04-29T07:32:29;11.60;99.90
22923;DHT22;11627;51.322;22.816;2023-04-29T07:34:58;11.60;99.90
22923;DHT22;11627;51.322;22.816;2023-04-29T07:37:24;11.70;99.90
22923;DHT22;11627;51.322;22.816;2023-04-29T07:39:50;11.70;99.90
22923;DHT22;11627;51.322;22.816;2023-04-29T07:42:16;11.80;99.90
22923;DHT22;11627;51.322;22.816;2023-04-29T07:44:42;11.70;99.90
22923;DHT22;11627;51.322;22.816;2023-04-29T07:47:10;11.70;99.90
22923;DHT22;11627;51.322;22.816;2023-04-29T07:49:37;11.60;99.90
22923;DHT22;11627;51.322;22.816;2023-04-29T07:52:06;11.80;99.90
22923;DHT22;11627;51.322;22.816;2023-04-29T07:54:34;11.90;99.90
22923;DHT22;11627;51.322;22.816;2023-04-29T07:57:01;11.90;99.90
22923;DHT22;11627;51.322;22.816;2023-04-29T07:59:28;12.00;99.90
22923;DHT22;11627;51.322;22.816;2023-04-29T08:01:54;12.00;99.90
22923;DHT22;11627;51.322;22.816;2023-04-29T08:04:20;12.00;99.90
22923;DHT22;11627;51.322;22.816;2023-04-29T08:06:46;11.90;99.90
22923;DHT22;11627;51.322;22.816;2023-04-29T08:09:13;11.90;99.90
22923;DHT22;11627;51.322;22.816;2023-04-29T08:11:39;12.10;99.90
22923;DHT22;11627;51.322;22.816;2023-04-29T08:14:05;12.20;99.90
22923;DHT22;11627;51.322;22.816;2023-04-29T08:16:30;12.20;99.90
22923;DHT22;11627;51.322;22.816;2023-04-29T08:18:56;12.30;99.90
22923;DHT22;11627;51.322;22.816;2023-04-29T08:21:22;12.40;99.90
22923;DHT22;11627;51.322;22.816;2023-04-29T08:23:48;12.50;99.90
22923;DHT22;11627;51.322;22.816;2023-04-29T08:26:15;12.50;99.90
22923;DHT22;11627;51.322;22.816;2023-04-29T08:28:41;12.50;99.90
22923;DHT22;11627;51.322;22.816;2023-04-29T08:31:06;12.60;99.90
22923;DHT22;11627;51.322;22.816;2023-04-29T08:33:33;12.70;99.90
22923;DHT22;11627;51.322;22.816;2023-04-29T08:35:59;12.80;99.90
22923;DHT22;11627;51.322;22.816;2023-04-29T08:38:28;12.80;99.90
22923;DHT22;11627;51.322;22.816;2023-04-29T08:40:54;13.00;99.90
22923;DHT22;11627;51.322;22.816;2023-04-29T08:43:21;13.10;99.90
22923;DHT22;11627;51.322;22.816;2023-04-29T08:45:50;13.30;99.90
22923;DHT22;11627;51.322;22.816;2023-04-29T08:48:17;13.40;99.90
22923;DHT22;11627;51.322;22.816;2023-04-29T08:50:43;13.40;99.90
22923;DHT22;11627;51.322;22.816;2023-04-29T08:53:10;13.50;99.90
22923;DHT22;11627;51.322;22.816;2023-04-29T08:55:44;13.70;99.90
22923;DHT22;11627;51.322;22.816;2023-04-29T08:58:12;13.90;99.90
22923;DHT22;11627;51.322;22.816;2023-04-29T09:00:39;14.00;99.90
22923;DHT22;11627;51.322;22.816;2023-04-29T09:03:16;14.10;99.90
22923;DHT22;11627;51.322;22.816;2023-04-29T09:05:42;14.20;99.90
22923;DHT22;11627;51.322;22.816;2023-04-29T09:08:11;14.20;99.90
22923;DHT22;11627;51.322;22.816;2023-04-29T09:10:39;14.30;99.90
22923;DHT22;11627;51.322;22.816;2023-04-29T09:13:06;14.30;99.90
22923;DHT22;11627;51.322;22.816;2023-04-29T09:15:38;14.20;99.90
22923;DHT22;11627;51.322;22.816;2023-04-29T09:18:05;14.30;99.90
22923;DHT22;11627;51.322;22.816;2023-04-29T09:20:31;14.20;99.90
22923;DHT22;11627;51.322;22.816;2023-04-29T09:22:59;14.30;99.90
22923;DHT22;11627;51.322;22.816;2023-04-29T09:25:26;14.50;99.90
22923;DHT22;11627;51.322;22.816;2023-04-29T09:27:53;14.50;99.90
22923;DHT22;11627;51.322;22.816;2023-04-29T09:30:19;14.50;99.90
22923;DHT22;11627;51.322;22.816;2023-04-29T09:32:46;14.60;99.90
22923;DHT22;11627;51.322;22.816;2023-04-29T09:35:28;14.60;99.90
22923;DHT22;11627;51.322;22.816;2023-04-29T09:38:11;14.70;99.90
22923;DHT22;11627;51.322;22.816;2023-04-29T09:40:38;14.60;99.90
22923;DHT22;11627;51.322;22.816;2023-04-29T09:43:14;14.60;99.90
22923;DHT22;11627;51.322;22.816;2023-04-29T09:45:42;14.70;99.90
22923;DHT22;11627;51.322;22.816;2023-04-29T09:48:08;14.70;99.90
22923;DHT22;11627;51.322;22.816;2023-04-29T09:50:35;14.80;99.90
22923;DHT22;11627;51.322;22.816;2023-04-29T09:53:02;14.80;99.90
22923;DHT22;11627;51.322;22.816;2023-04-29T09:55:28;14.70;99.90
22923;DHT22;11627;51.322;22.816;2023-04-29T09:57:54;14.70;99.90
22923;DHT22;11627;51.322;22.816;2023-04-29T10:00:20;14.70;99.90
22923;DHT22;11627;51.322;22.816;2023-04-29T10:02:48;14.70;99.90
22923;DHT22;11627;51.322;22.816;2023-04-29T10:05:15;14.80;99.90
22923;DHT22;11627;51.322;22.816;2023-04-29T10:07:41;14.90;99.90
22923;DHT22;11627;51.322;22.816;2023-04-29T10:10:08;14.90;99.90
22923;DHT22;11627;51.322;22.816;2023-04-29T10:12:35;14.60;99.90
22923;DHT22;11627;51.322;22.816;2023-04-29T10:17:58;14.90;99.90
22923;DHT22;11627;51.322;22.816;2023-04-29T10:20:27;14.80;99.90
22923;DHT22;11627;51.322;22.816;2023-04-29T10:22:54;14.90;99.90
22923;DHT22;11627;51.322;22.816;2023-04-29T10:25:23;14.90;99.90
22923;DHT22;11627;51.322;22.816;2023-04-29T10:27:50;15.10;99.90
22923;DHT22;11627;51.322;22.816;2023-04-29T10:30:19;15.20;99.90
22923;DHT22;11627;51.322;22.816;2023-04-29T10:32:47;15.40;99.90
22923;DHT22;11627;51.322;22.816;2023-04-29T10:35:14;15.50;99.90
22923;DHT22;11627;51.322;22.816;2023-04-29T10:37:41;15.50;99.90
22923;DHT22;11627;51.322;22.816;2023-04-29T10:40:12;15.40;99.90
22923;DHT22;11627;51.322;22.816;2023-04-29T10:45:27;15.60;99.90
22923;DHT22;11627;51.322;22.816;2023-04-29T10:50:28;15.70;99.90
22923;DHT22;11627;51.322;22.816;2023-04-29T10:52:54;15.80;99.90
22923;DHT22;11627;51.322;22.816;2023-04-29T10:55:22;15.80;99.90
22923;DHT22;11627;51.322;22.816;2023-04-29T10:57:51;15.80;99.90
22923;DHT22;11627;51.322;22.816;2023-04-29T11:00:29;15.80;99.90
22923;DHT22;11627;51.322;22.816;2023-04-29T11:03:05;15.90;99.90
22923;DHT22;11627;51.322;22.816;2023-04-29T11:05:35;15.90;99.90
22923;DHT22;11627;51.322;22.816;2023-04-29T11:08:18;16.00;99.90
22923;DHT22;11627;51.322;22.816;2023-04-29T11:10:52;16.00;99.90
22923;DHT22;11627;51.322;22.816;2023-04-29T11:13:25;16.10;99.90
22923;DHT22;11627;51.322;22.816;2023-04-29T11:15:52;16.20;99.90
22923;DHT22;11627;51.322;22.816;2023-04-29T11:18:18;16.20;99.90
22923;DHT22;11627;51.322;22.816;2023-04-29T11:23:29;16.10;99.90
22923;DHT22;11627;51.322;22.816;2023-04-29T11:25:55;16.20;99.90
22923;DHT22;11627;51.322;22.816;2023-04-29T11:28:22;16.30;99.90
22923;DHT22;11627;51.322;22.816;2023-04-29T11:30:52;16.50;99.90
22923;DHT22;11627;51.322;22.816;2023-04-29T11:33:25;16.60;99.90
22923;DHT22;11627;51.322;22.816;2023-04-29T11:35:52;16.60;99.90
22923;DHT22;11627;51.322;22.816;2023-04-29T11:38:24;16.70;99.90
22923;DHT22;11627;51.322;22.816;2023-04-29T11:40:50;16.70;99.90
22923;DHT22;11627;51.322;22.816;2023-04-29T11:43:17;16.90;99.90
22923;DHT22;11627;51.322;22.816;2023-04-29T11:45:46;16.90;99.90
22923;DHT22;11627;51.322;22.816;2023-04-29T11:48:25;16.90;99.90
22923;DHT22;11627;51.322;22.816;2023-04-29T11:50:56;16.90;99.90
22923;DHT22;11627;51.322;22.816;2023-04-29T11:53:24;16.90;99.90
22923;DHT22;11627;51.322;22.816;2023-04-29T11:55:53;17.00;99.90
22923;DHT22;11627;51.322;22.816;2023-04-29T11:58:23;16.90;99.90
22923;DHT22;11627;51.322;22.816;2023-04-29T12:00:50;16.90;99.90
22923;DHT22;11627;51.322;22.816;2023-04-29T12:03:17;16.90;99.90
22923;DHT22;11627;51.322;22.816;2023-04-29T12:05:50;17.10;99.90
22923;DHT22;11627;51.322;22.816;2023-04-29T12:08:24;17.20;99.90
22923;DHT22;11627;51.322;22.816;2023-04-29T12:10:51;17.40;99.90
22923;DHT22;11627;51.322;22.816;2023-04-29T12:13:18;17.30;99.90
22923;DHT22;11627;51.322;22.816;2023-04-29T12:15:48;17.40;99.90
22923;DHT22;11627;51.322;22.816;2023-04-29T12:18:16;17.30;99.90
22923;DHT22;11627;51.322;22.816;2023-04-29T12:20:45;17.40;99.90
22923;DHT22;11627;51.322;22.816;2023-04-29T12:23:19;17.50;99.90
22923;DHT22;11627;51.322;22.816;2023-04-29T12:25:50;17.60;99.90
22923;DHT22;11627;51.322;22.816;2023-04-29T12:28:17;17.60;99.90
22923;DHT22;11627;51.322;22.816;2023-04-29T12:30:47;17.60;99.90
22923;DHT22;11627;51.322;22.816;2023-04-29T12:33:23;17.70;99.90
22923;DHT22;11627;51.322;22.816;2023-04-29T12:35:52;17.60;99.90
22923;DHT22;11627;51.322;22.816;2023-04-29T12:38:31;17.90;99.90
22923;DHT22;11627;51.322;22.816;2023-04-29T12:40:59;18.10;99.90
22923;DHT22;11627;51.322;22.816;2023-04-29T12:43:29;18.20;99.90
22923;DHT22;11627;51.322;22.816;2023-04-29T12:46:03;18.20;99.90
22923;DHT22;11627;51.322;22.816;2023-04-29T12:48:30;18.10;99.90
22923;DHT22;11627;51.322;22.816;2023-04-29T12:50:56;18.20;99.90
22923;DHT22;11627;51.322;22.816;2023-04-29T12:53:24;18.10;99.90
22923;DHT22;11627;51.322;22.816;2023-04-29T12:55:50;18.30;99.90
22923;DHT22;11627;51.322;22.816;2023-04-29T12:58:16;18.40;99.90
22923;DHT22;11627;51.322;22.816;2023-04-29T13:00:42;18.30;99.90
22923;DHT22;11627;51.322;22.816;2023-04-29T13:03:08;18.10;99.90
22923;DHT22;11627;51.322;22.816;2023-04-29T13:05:34;18.20;99.90
22923;DHT22;11627;51.322;22.816;2023-04-29T13:08:00;18.20;99.90
22923;DHT22;11627;51.322;22.816;2023-04-29T13:10:26;18.30;99.90
22923;DHT22;11627;51.322;22.816;2023-04-29T13:12:53;18.30;99.90
22923;DHT22;11627;51.322;22.816;2023-04-29T13:15:19;18.40;99.90
22923;DHT22;11627;51.322;22.816;2023-04-29T13:17:45;18.40;99.90
22923;DHT22;11627;51.322;22.816;2023-04-29T13:20:11;18.30;99.90
22923;DHT22;11627;51.322;22.816;2023-04-29T13:22:38;18.20;99.90
22923;DHT22;11627;51.322;22.816;2023-04-29T13:25:04;18.10;99.90
22923;DHT22;11627;51.322;22.816;2023-04-29T13:27:30;17.90;99.90
22923;DHT22;11627;51.322;22.816;2023-04-29T13:29:55;17.90;99.90
22923;DHT22;11627;51.322;22.816;2023-04-29T13:32:22;18.00;99.90
22923;DHT22;11627;51.322;22.816;2023-04-29T13:34:49;18.10;99.90
22923;DHT22;11627;51.322;22.816;2023-04-29T13:37:15;18.10;99.90
22923;DHT22;11627;51.322;22.816;2023-04-29T13:39:41;18.10;99.90
22923;DHT22;11627;51.322;22.816;2023-04-29T13:42:07;18.10;99.90
22923;DHT22;11627;51.322;22.816;2023-04-29T13:44:33;17.90;99.90
22923;DHT22;11627;51.322;22.816;2023-04-29T13:46:59;18.00;99.90
22923;DHT22;11627;51.322;22.816;2023-04-29T13:49:25;18.10;99.90
22923;DHT22;11627;51.322;22.816;2023-04-29T13:51:51;18.10;99.90
22923;DHT22;11627;51.322;22.816;2023-04-29T13:54:17;18.20;99.90
22923;DHT22;11627;51.322;22.816;2023-04-29T13:56:46;18.40;99.90
22923;DHT22;11627;51.322;22.816;2023-04-29T13:59:12;18.60;99.90
22923;DHT22;11627;51.322;22.816;2023-04-29T14:01:38;18.80;99.90
22923;DHT22;11627;51.322;22.816;2023-04-29T14:04:04;19.00;99.90
22923;DHT22;11627;51.322;22.816;2023-04-29T14:06:29;19.00;99.90
22923;DHT22;11627;51.322;22.816;2023-04-29T14:08:57;19.00;99.90
22923;DHT22;11627;51.322;22.816;2023-04-29T14:11:23;19.00;99.90
22923;DHT22;11627;51.322;22.816;2023-04-29T14:13:49;19.10;99.90
22923;DHT22;11627;51.322;22.816;2023-04-29T14:16:15;19.30;99.90
22923;DHT22;11627;51.322;22.816;2023-04-29T14:18:41;19.50;99.90
22923;DHT22;11627;51.322;22.816;2023-04-29T14:21:07;19.60;99.90
22923;DHT22;11627;51.322;22.816;2023-04-29T14:23:33;19.60;99.90
22923;DHT22;11627;51.322;22.816;2023-04-29T14:25:59;19.60;99.90
22923;DHT22;11627;51.322;22.816;2023-04-29T14:28:25;19.60;99.90
22923;DHT22;11627;51.322;22.816;2023-04-29T14:30:51;19.50;99.90
22923;DHT22;11627;51.322;22.816;2023-04-29T14:33:16;19.60;99.90
22923;DHT22;11627;51.322;22.816;2023-04-29T14:35:42;19.60;99.90
22923;DHT22;11627;51.322;22.816;2023-04-29T14:38:08;19.80;99.90
22923;DHT22;11627;51.322;22.816;2023-04-29T14:40:33;19.70;99.90
22923;DHT22;11627;51.322;22.816;2023-04-29T14:42:59;19.70;99.90
22923;DHT22;11627;51.322;22.816;2023-04-29T14:45:26;19.70;99.90
22923;DHT22;11627;51.322;22.816;2023-04-29T14:47:52;19.80;99.90
22923;DHT22;11627;51.322;22.816;2023-04-29T14:50:18;20.00;99.90
22923;DHT22;11627;51.322;22.816;2023-04-29T14:52:44;19.90;99.90
22923;DHT22;11627;51.322;22.816;2023-04-29T14:55:10;20.30;99.90
22923;DHT22;11627;51.322;22.816;2023-04-29T14:57:36;19.90;99.90
22923;DHT22;11627;51.322;22.816;2023-04-29T15:00:01;20.10;99.90
22923;DHT22;11627;51.322;22.816;2023-04-29T15:02:28;20.60;99.90
22923;DHT22;11627;51.322;22.816;2023-04-29T15:04:53;20.90;99.90
22923;DHT22;11627;51.322;22.816;2023-04-29T15:07:19;22.60;99.90
22923;DHT22;11627;51.322;22.816;2023-04-29T15:09:46;24.50;99.90
22923;DHT22;11627;51.322;22.816;2023-04-29T15:12:11;25.40;99.90
22923;DHT22;11627;51.322;22.816;2023-04-29T15:14:38;26.20;99.90
22923;DHT22;11627;51.322;22.816;2023-04-29T15:17:04;26.50;99.90
22923;DHT22;11627;51.322;22.816;2023-04-29T15:19:30;26.90;99.90
22923;DHT22;11627;51.322;22.816;2023-04-29T15:21:55;27.80;99.90
22923;DHT22;11627;51.322;22.816;2023-04-29T15:24:21;28.20;99.90
22923;DHT22;11627;51.322;22.816;2023-04-29T15:26:47;28.80;99.90
22923;DHT22;11627;51.322;22.816;2023-04-29T15:29:13;28.40;99.90
22923;DHT22;11627;51.322;22.816;2023-04-29T15:31:38;28.40;99.90
22923;DHT22;11627;51.322;22.816;2023-04-29T15:34:04;29.50;99.90
22923;DHT22;11627;51.322;22.816;2023-04-29T15:36:31;30.00;99.90
22923;DHT22;11627;51.322;22.816;2023-04-29T15:38:59;29.70;99.90
22923;DHT22;11627;51.322;22.816;2023-04-29T15:41:25;30.80;99.90
22923;DHT22;11627;51.322;22.816;2023-04-29T15:43:51;31.50;99.90
22923;DHT22;11627;51.322;22.816;2023-04-29T15:46:17;31.20;99.90
22923;DHT22;11627;51.322;22.816;2023-04-29T15:48:43;31.10;99.90
22923;DHT22;11627;51.322;22.816;2023-04-29T15:51:10;30.80;99.90